Time;durP1;ratioP1;P1;durP2;ratioP2;P2;SDS_P1;SDS_P2;PMS_P1;PMS_P2;Temp;Humidity;BMP_temperature;BMP_pressure;BME280_temperature;BME280_humidity;BME280_pressure;Samples;Min_cycle;Max_cycle;Signal;HPM_P1;HPM_P2
2022/09/10 00:00:54;;;;;;;11.57;9.68;;;;;;;;;;5086961;28;20040;-80
2022/09/10 00:03:21;;;;;;;12.93;9.73;;;;;;;;;;5066747;28;20059;-81
2022/09/10 00:05:47;;;;;;;11.70;10.20;;;;;;;;;;5070945;28;20075;-81
2022/09/10 00:08:13;;;;;;;11.02;9.80;;;;;;;;;;5090057;28;20441;-81
2022/09/10 00:10:40;;;;;;;12.15;10.00;;;;;;;;;;5069963;28;20048;-80
2022/09/10 00:13:09;;;;;;;11.23;10.13;;;;;;;;;;5073949;28;20040;-81
2022/09/10 00:15:43;;;;;;;10.27;9.05;;;;;;;;;;5083238;28;20039;-80
2022/09/10 00:18:09;;;;;;;11.20;9.55;;;;;;;;;;5071747;28;20078;-81
2022/09/10 00:20:46;;;;;;;10.70;9.55;;;;;;;;;;5064015;28;20043;-81
2022/09/10 00:23:12;;;;;;;10.07;9.18;;;;;;;;;;5073585;28;20083;-81
2022/09/10 00:25:39;;;;;;;13.13;10.57;;;;;;;;;;5088003;28;20056;-80
2022/09/10 00:28:07;;;;;;;11.98;10.23;;;;;;;;;;5073639;28;20481;-80
2022/09/10 00:30:33;;;;;;;12.25;10.55;;;;;;;;;;5084832;28;20123;-80
2022/09/10 00:32:59;;;;;;;11.70;9.52;;;;;;;;;;5070793;28;20044;-80
2022/09/10 00:35:25;;;;;;;13.00;10.25;;;;;;;;;;5070386;28;20048;-81
2022/09/10 00:37:51;;;;;;;10.32;9.30;;;;;;;;;;5068591;28;20036;-81
2022/09/10 00:40:18;;;;;;;11.23;10.13;;;;;;;;;;5066048;28;20052;-81
2022/09/10 00:42:44;;;;;;;11.82;9.93;;;;;;;;;;5090480;28;20055;-80
2022/09/10 00:45:16;;;;;;;13.43;10.55;;;;;;;;;;5074281;28;20047;-80
2022/09/10 00:47:45;;;;;;;12.55;10.77;;;;;;;;;;5089304;28;20051;-81
2022/09/10 00:50:46;;;;;;;13.35;11.18;;;;;;;;;;5085347;28;20059;-80
2022/09/10 00:53:15;;;;;;;12.00;10.80;;;;;;;;;;4997774;28;20190;-81
2022/09/10 00:55:42;;;;;;;11.57;10.38;;;;;;;;;;5054007;28;20044;-80
2022/09/10 00:58:10;;;;;;;14.10;10.85;;;;;;;;;;5087337;28;20047;-80
2022/09/10 01:00:36;;;;;;;11.73;10.32;;;;;;;;;;5085514;28;20040;-80
2022/09/10 01:03:05;;;;;;;10.60;9.57;;;;;;;;;;5071283;28;20044;-80
2022/09/10 01:05:33;;;;;;;13.00;10.27;;;;;;;;;;5086408;28;20101;-81
2022/09/10 01:07:59;;;;;;;11.40;10.18;;;;;;;;;;5070809;28;20120;-80
2022/09/10 01:10:30;;;;;;;11.77;10.20;;;;;;;;;;5063389;28;20087;-80
2022/09/10 01:13:02;;;;;;;11.15;10.05;;;;;;;;;;5090918;28;20139;-80
2022/09/10 01:15:48;;;;;;;12.07;10.73;;;;;;;;;;5086353;28;20048;-80
2022/09/10 01:18:35;;;;;;;12.07;10.85;;;;;;;;;;5037892;28;20044;-80
2022/09/10 01:21:20;;;;;;;13.98;11.02;;;;;;;;;;5061927;28;20044;-80
2022/09/10 01:23:56;;;;;;;13.38;10.68;;;;;;;;;;5061228;28;20424;-80
2022/09/10 01:26:26;;;;;;;13.73;11.45;;;;;;;;;;5065016;28;20047;-80
2022/09/10 01:28:52;;;;;;;13.73;12.23;;;;;;;;;;5089103;28;20046;-79
2022/09/10 01:31:21;;;;;;;13.95;12.20;;;;;;;;;;5066615;28;20167;-80
2022/09/10 01:33:51;;;;;;;13.32;12.07;;;;;;;;;;5088773;28;20158;-80
2022/09/10 01:36:19;;;;;;;16.33;12.18;;;;;;;;;;5068934;28;20395;-80
2022/09/10 01:38:46;;;;;;;13.55;12.13;;;;;;;;;;5090235;28;20048;-80
2022/09/10 01:41:12;;;;;;;14.23;12.38;;;;;;;;;;5066038;28;20047;-80
2022/09/10 01:43:40;;;;;;;14.25;12.85;;;;;;;;;;5068830;28;20430;-79
2022/09/10 01:46:19;;;;;;;16.05;13.20;;;;;;;;;;5067087;28;20455;-79
2022/09/10 01:48:55;;;;;;;17.40;13.07;;;;;;;;;;5068578;28;20047;-79
2022/09/10 01:51:39;;;;;;;15.57;13.98;;;;;;;;;;5069798;28;20528;-79
2022/09/10 01:54:24;;;;;;;15.57;13.98;;;;;;;;;;5065429;28;20056;-79
2022/09/10 01:56:59;;;;;;;19.10;14.88;;;;;;;;;;5086257;28;20404;-79
2022/09/10 01:59:25;;;;;;;16.00;14.40;;;;;;;;;;5076749;28;20032;-79
2022/09/10 02:01:56;;;;;;;17.80;15.30;;;;;;;;;;5063259;28;20483;-79
2022/09/10 02:04:23;;;;;;;18.10;15.68;;;;;;;;;;5068529;28;20044;-79
2022/09/10 02:06:51;;;;;;;18.90;15.75;;;;;;;;;;5068459;28;20059;-79
2022/09/10 02:09:18;;;;;;;16.77;14.98;;;;;;;;;;5070371;28;20182;-79
2022/09/10 02:11:48;;;;;;;18.17;15.95;;;;;;;;;;5089016;28;20040;-79
2022/09/10 02:14:15;;;;;;;18.38;15.18;;;;;;;;;;5069505;28;20061;-79
2022/09/10 02:16:44;;;;;;;21.02;16.58;;;;;;;;;;5060880;28;20372;-79
2022/09/10 02:19:10;;;;;;;19.48;16.25;;;;;;;;;;5087331;28;20122;-79
2022/09/10 02:21:36;;;;;;;17.85;15.85;;;;;;;;;;5068447;28;20044;-79
2022/09/10 02:24:07;;;;;;;19.48;16.13;;;;;;;;;;5089556;28;20040;-80
2022/09/10 02:26:33;;;;;;;20.55;17.17;;;;;;;;;;5082559;28;20040;-79
2022/09/10 02:29:00;;;;;;;18.77;15.90;;;;;;;;;;5068732;28;20491;-79
2022/09/10 02:31:27;;;;;;;18.67;16.67;;;;;;;;;;5067528;28;20056;-79
2022/09/10 02:33:56;;;;;;;18.08;15.95;;;;;;;;;;5091157;28;20048;-79
2022/09/10 02:36:24;;;;;;;21.35;16.63;;;;;;;;;;5064904;28;20051;-79
2022/09/10 02:38:51;;;;;;;21.13;16.08;;;;;;;;;;5088980;28;20044;-79
2022/09/10 02:41:17;;;;;;;19.02;17.05;;;;;;;;;;5082229;28;20044;-79
2022/09/10 02:43:44;;;;;;;18.98;16.55;;;;;;;;;;5092514;28;20040;-79
2022/09/10 02:46:11;;;;;;;20.88;17.13;;;;;;;;;;5085916;28;20052;-79
2022/09/10 02:48:38;;;;;;;22.02;18.33;;;;;;;;;;5073147;28;20109;-78
2022/09/10 02:51:04;;;;;;;20.63;18.42;;;;;;;;;;5091272;28;20063;-79
2022/09/10 02:53:31;;;;;;;20.67;17.83;;;;;;;;;;5094609;28;20055;-79
2022/09/10 02:55:57;;;;;;;23.00;20.33;;;;;;;;;;5084243;28;20127;-79
2022/09/10 02:58:23;;;;;;;21.83;19.45;;;;;;;;;;5090465;28;20067;-79
2022/09/10 03:00:49;;;;;;;23.05;19.00;;;;;;;;;;5072230;28;20071;-79
2022/09/10 03:03:16;;;;;;;23.55;19.65;;;;;;;;;;5088362;28;20048;-80
2022/09/10 03:05:42;;;;;;;23.25;20.75;;;;;;;;;;5085544;28;20044;-80
2022/09/10 03:08:09;;;;;;;23.02;20.45;;;;;;;;;;5060951;28;20139;-79
2022/09/10 03:10:36;;;;;;;22.88;20.17;;;;;;;;;;5091331;28;20127;-80
2022/09/10 03:13:02;;;;;;;23.95;20.23;;;;;;;;;;5073664;28;20048;-79
2022/09/10 03:15:28;;;;;;;23.55;20.73;;;;;;;;;;5087531;28;20381;-79
2022/09/10 03:17:54;;;;;;;22.50;20.10;;;;;;;;;;5085376;28;20101;-79
2022/09/10 03:20:21;;;;;;;25.80;21.17;;;;;;;;;;5091912;28;20453;-80
2022/09/10 03:22:48;;;;;;;22.50;19.95;;;;;;;;;;5088042;28;20048;-80
2022/09/10 03:25:14;;;;;;;25.05;20.80;;;;;;;;;;5059792;28;20044;-80
2022/09/10 03:27:40;;;;;;;23.55;20.52;;;;;;;;;;5070289;28;20052;-80
2022/09/10 03:30:06;;;;;;;22.02;19.55;;;;;;;;;;5073599;28;20036;-80
2022/09/10 03:32:32;;;;;;;26.00;21.02;;;;;;;;;;5064943;28;20056;-79
2022/09/10 03:34:58;;;;;;;23.40;19.88;;;;;;;;;;5066267;28;20097;-80
2022/09/10 03:37:24;;;;;;;22.42;20.10;;;;;;;;;;5089520;28;20100;-80
2022/09/10 03:39:50;;;;;;;22.95;20.58;;;;;;;;;;5072063;28;20052;-80
2022/09/10 03:42:16;;;;;;;24.45;20.48;;;;;;;;;;5070236;28;20135;-80
2022/09/10 03:44:42;;;;;;;25.33;22.50;;;;;;;;;;5085221;28;20143;-79
2022/09/10 03:47:10;;;;;;;24.60;22.00;;;;;;;;;;5088559;28;20123;-79
2022/09/10 03:49:36;;;;;;;23.83;20.83;;;;;;;;;;5072139;28;20048;-80
2022/09/10 03:52:02;;;;;;;23.35;20.85;;;;;;;;;;5087672;28;20048;-80
2022/09/10 03:54:28;;;;;;;23.45;21.00;;;;;;;;;;5075102;28;20055;-80
2022/09/10 03:56:54;;;;;;;24.67;20.75;;;;;;;;;;5072112;28;20043;-79
2022/09/10 03:59:20;;;;;;;24.65;22.05;;;;;;;;;;5069495;28;20044;-80
2022/09/10 04:01:46;;;;;;;26.10;21.77;;;;;;;;;;5088600;28;20044;-80
2022/09/10 04:04:13;;;;;;;24.88;22.27;;;;;;;;;;5069349;28;20040;-80
2022/09/10 04:06:40;;;;;;;23.20;20.77;;;;;;;;;;5084715;28;20047;-80
2022/09/10 04:09:06;;;;;;;25.63;22.92;;;;;;;;;;5072283;28;20051;-80
2022/09/10 04:11:32;;;;;;;24.27;21.77;;;;;;;;;;5067945;28;20040;-79
2022/09/10 04:13:59;;;;;;;26.42;23.00;;;;;;;;;;5088918;28;20043;-79
2022/09/10 04:16:26;;;;;;;24.20;21.55;;;;;;;;;;5070994;28;20382;-80
2022/09/10 04:18:52;;;;;;;24.55;22.00;;;;;;;;;;5066275;28;20450;-79
2022/09/10 04:21:19;;;;;;;26.95;22.77;;;;;;;;;;5067463;28;20044;-79
2022/09/10 04:23:46;;;;;;;28.80;24.92;;;;;;;;;;5091163;28;20044;-80
2022/09/10 04:26:17;;;;;;;26.05;23.35;;;;;;;;;;5072647;28;20094;-79
2022/09/10 04:28:43;;;;;;;26.45;23.55;;;;;;;;;;5090073;28;20139;-79
2022/09/10 04:31:09;;;;;;;28.52;25.42;;;;;;;;;;5087514;28;20045;-80
2022/09/10 04:33:36;;;;;;;26.58;23.88;;;;;;;;;;5062345;28;20036;-80
2022/09/10 04:36:03;;;;;;;27.83;24.42;;;;;;;;;;5084519;28;20063;-80
2022/09/10 04:38:29;;;;;;;25.98;23.10;;;;;;;;;;5070834;28;20044;-80
2022/09/10 04:41:01;;;;;;;27.30;23.95;;;;;;;;;;5063520;28;20475;-80
2022/09/10 04:43:28;;;;;;;27.08;23.58;;;;;;;;;;5070617;28;20534;-80
2022/09/10 04:45:54;;;;;;;27.08;23.30;;;;;;;;;;5069998;28;20044;-80
2022/09/10 04:48:21;;;;;;;26.38;23.50;;;;;;;;;;5068956;28;20043;-80
2022/09/10 04:50:47;;;;;;;28.60;24.65;;;;;;;;;;5089334;28;20062;-80
2022/09/10 04:53:14;;;;;;;25.65;22.58;;;;;;;;;;5087738;28;20054;-80
2022/09/10 04:55:41;;;;;;;25.65;22.00;;;;;;;;;;5090417;28;20075;-80
2022/09/10 04:58:08;;;;;;;25.80;23.13;;;;;;;;;;5067835;28;20040;-79
2022/09/10 05:00:34;;;;;;;25.42;22.73;;;;;;;;;;5069033;28;20048;-79
2022/09/10 05:03:00;;;;;;;28.58;24.63;;;;;;;;;;5067492;28;20081;-80
2022/09/10 05:05:27;;;;;;;27.67;23.52;;;;;;;;;;5087558;28;20504;-80
2022/09/10 05:07:53;;;;;;;26.42;22.38;;;;;;;;;;5069281;28;20048;-80
2022/09/10 05:10:20;;;;;;;26.17;23.38;;;;;;;;;;5090346;28;20047;-79
2022/09/10 05:12:47;;;;;;;26.50;22.95;;;;;;;;;;5086317;28;20063;-80
2022/09/10 05:15:13;;;;;;;28.63;23.17;;;;;;;;;;5069254;28;20093;-80
2022/09/10 05:17:39;;;;;;;29.67;23.67;;;;;;;;;;5067326;28;20399;-79
2022/09/10 05:20:06;;;;;;;26.48;23.15;;;;;;;;;;5062620;28;20120;-80
2022/09/10 05:22:33;;;;;;;24.60;21.75;;;;;;;;;;5083854;28;20044;-80
2022/09/10 05:25:00;;;;;;;23.30;20.75;;;;;;;;;;5069541;28;20126;-79
2022/09/10 05:27:25;;;;;;;23.75;21.25;;;;;;;;;;5072536;28;20036;-79
2022/09/10 05:29:51;;;;;;;22.27;19.77;;;;;;;;;;5087453;28;20043;-80
2022/09/10 05:32:18;;;;;;;23.50;21.05;;;;;;;;;;5069132;28;20128;-80
2022/09/10 05:34:47;;;;;;;22.70;20.40;;;;;;;;;;5071199;28;20426;-79
2022/09/10 05:37:14;;;;;;;23.15;20.80;;;;;;;;;;5071061;28;20437;-80
2022/09/10 05:39:40;;;;;;;22.08;19.90;;;;;;;;;;5083607;28;20044;-80
2022/09/10 05:42:06;;;;;;;25.60;21.95;;;;;;;;;;5089682;28;20083;-80
2022/09/10 05:44:32;;;;;;;23.33;20.88;;;;;;;;;;5087989;28;20071;-80
2022/09/10 05:46:58;;;;;;;22.90;20.50;;;;;;;;;;5066175;28;20040;-80
2022/09/10 05:49:25;;;;;;;24.30;21.80;;;;;;;;;;5061944;28;20079;-80
2022/09/10 05:51:51;;;;;;;24.17;21.58;;;;;;;;;;5081150;28;20067;-80
2022/09/10 05:54:17;;;;;;;25.45;22.73;;;;;;;;;;5088215;28;20036;-80
2022/09/10 05:56:43;;;;;;;26.13;23.25;;;;;;;;;;5069280;28;20052;-80
2022/09/10 05:59:09;;;;;;;24.45;21.80;;;;;;;;;;5072708;28;20040;-80
2022/09/10 06:01:36;;;;;;;24.75;22.08;;;;;;;;;;5086119;28;20044;-80
2022/09/10 06:04:02;;;;;;;24.23;21.67;;;;;;;;;;5071613;28;20044;-80
2022/09/10 06:06:31;;;;;;;27.08;22.15;;;;;;;;;;5083531;28;20082;-80
2022/09/10 06:08:57;;;;;;;24.17;21.67;;;;;;;;;;5069538;28;20036;-80
2022/09/10 06:11:23;;;;;;;25.73;23.02;;;;;;;;;;5090100;28;20468;-79
2022/09/10 06:13:50;;;;;;;28.48;23.00;;;;;;;;;;5070839;28;20056;-79
2022/09/10 06:16:16;;;;;;;26.75;22.25;;;;;;;;;;5073017;28;20047;-79
2022/09/10 06:18:42;;;;;;;25.33;22.60;;;;;;;;;;5090435;28;20097;-80
2022/09/10 06:21:13;;;;;;;26.02;22.52;;;;;;;;;;5091546;28;20036;-80
2022/09/10 06:23:39;;;;;;;26.75;22.30;;;;;;;;;;5075953;28;20479;-79
2022/09/10 06:26:18;;;;;;;24.85;22.25;;;;;;;;;;5091200;28;20143;-80
2022/09/10 06:28:45;;;;;;;25.88;22.98;;;;;;;;;;5092992;28;20411;-80
2022/09/10 06:31:15;;;;;;;27.70;22.95;;;;;;;;;;5070554;28;20043;-80
2022/09/10 06:33:42;;;;;;;25.88;22.50;;;;;;;;;;5089932;28;20097;-79
2022/09/10 06:36:08;;;;;;;25.45;22.75;;;;;;;;;;5072604;28;20052;-80
2022/09/10 06:38:35;;;;;;;26.20;23.38;;;;;;;;;;5074145;28;20059;-79
2022/09/10 06:41:03;;;;;;;24.33;21.85;;;;;;;;;;5072986;28;20052;-80
2022/09/10 06:43:32;;;;;;;24.38;21.88;;;;;;;;;;5071842;28;20050;-80
2022/09/10 06:45:58;;;;;;;26.48;22.20;;;;;;;;;;5073100;28;20093;-79
2022/09/10 06:48:26;;;;;;;26.58;22.70;;;;;;;;;;5077856;28;20064;-80
2022/09/10 06:50:53;;;;;;;26.73;21.63;;;;;;;;;;5087984;28;20060;-80
2022/09/10 06:53:21;;;;;;;25.92;21.98;;;;;;;;;;5074075;28;20527;-80
2022/09/10 06:55:47;;;;;;;25.75;22.40;;;;;;;;;;5069391;28;20079;-80
2022/09/10 06:58:13;;;;;;;26.33;21.70;;;;;;;;;;5065602;28;20040;-79
2022/09/10 07:00:40;;;;;;;25.27;22.35;;;;;;;;;;5066286;28;20727;-79
2022/09/10 07:03:06;;;;;;;28.33;22.38;;;;;;;;;;5088137;28;20523;-80
2022/09/10 07:05:32;;;;;;;25.63;22.88;;;;;;;;;;5071643;28;20756;-80
2022/09/10 07:07:58;;;;;;;25.27;22.67;;;;;;;;;;5072882;28;20040;-80
2022/09/10 07:10:26;;;;;;;23.85;21.35;;;;;;;;;;5088123;28;20040;-80
2022/09/10 07:12:52;;;;;;;24.65;21.08;;;;;;;;;;5072943;28;20047;-80
2022/09/10 07:15:18;;;;;;;24.35;21.42;;;;;;;;;;5088826;28;20077;-80
2022/09/10 07:17:44;;;;;;;23.70;21.25;;;;;;;;;;5070411;28;20041;-79
2022/09/10 07:20:11;;;;;;;24.25;21.75;;;;;;;;;;5090905;28;20062;-80
2022/09/10 07:22:38;;;;;;;27.10;21.98;;;;;;;;;;5068702;28;20508;-80
2022/09/10 07:25:06;;;;;;;24.52;21.55;;;;;;;;;;5091431;28;20044;-80
2022/09/10 07:27:32;;;;;;;23.23;20.83;;;;;;;;;;5071997;28;20493;-80
2022/09/10 07:29:59;;;;;;;25.73;23.00;;;;;;;;;;5080340;28;20457;-80
2022/09/10 07:32:25;;;;;;;29.15;25.45;;;;;;;;;;5069891;28;20611;-80
2022/09/10 07:34:54;;;;;;;22.92;20.63;;;;;;;;;;5092646;28;20078;-80
2022/09/10 07:37:21;;;;;;;23.30;20.85;;;;;;;;;;5088183;28;20407;-80
2022/09/10 07:39:47;;;;;;;27.23;20.65;;;;;;;;;;5070432;28;20045;-80
2022/09/10 07:42:13;;;;;;;23.65;21.25;;;;;;;;;;5089798;28;20040;-80
2022/09/10 07:44:39;;;;;;;25.08;22.38;;;;;;;;;;5073239;28;20051;-80
2022/09/10 07:47:05;;;;;;;24.50;20.80;;;;;;;;;;5063416;28;20515;-80
2022/09/10 07:49:31;;;;;;;22.98;20.67;;;;;;;;;;5091936;28;20550;-80
2022/09/10 07:51:58;;;;;;;23.67;21.25;;;;;;;;;;5085996;28;20395;-80
2022/09/10 07:54:24;;;;;;;23.15;20.85;;;;;;;;;;5086492;28;20069;-80
2022/09/10 07:56:50;;;;;;;22.63;20.23;;;;;;;;;;5087952;28;20520;-80
2022/09/10 07:59:19;;;;;;;21.45;19.25;;;;;;;;;;5070543;28;20089;-80
2022/09/10 08:01:46;;;;;;;22.77;20.38;;;;;;;;;;5088541;28;20115;-80
2022/09/10 08:04:12;;;;;;;22.85;20.30;;;;;;;;;;5090983;28;20050;-80
2022/09/10 08:06:38;;;;;;;22.80;20.40;;;;;;;;;;5069584;28;20040;-80
2022/09/10 08:09:06;;;;;;;21.88;19.40;;;;;;;;;;5068796;28;20040;-80
2022/09/10 08:11:33;;;;;;;22.08;19.88;;;;;;;;;;5090196;28;20533;-79
2022/09/10 08:13:59;;;;;;;21.33;18.85;;;;;;;;;;5068551;28;20044;-79
2022/09/10 08:16:26;;;;;;;20.25;18.25;;;;;;;;;;5086103;28;20365;-86
2022/09/10 08:18:56;;;;;;;21.25;18.95;;;;;;;;;;5063688;28;20044;-83
2022/09/10 08:21:23;;;;;;;21.15;18.00;;;;;;;;;;5071072;28;20040;-81
2022/09/10 08:23:50;;;;;;;19.50;17.50;;;;;;;;;;5082469;28;20051;-80
2022/09/10 08:26:16;;;;;;;21.40;17.85;;;;;;;;;;5072112;28;20090;-81
2022/09/10 08:28:43;;;;;;;19.77;17.75;;;;;;;;;;5084351;28;20044;-80
2022/09/10 08:31:10;;;;;;;20.58;18.35;;;;;;;;;;5092157;28;20236;-81
2022/09/10 08:33:38;;;;;;;19.25;17.15;;;;;;;;;;5068840;28;20047;-82
2022/09/10 08:36:04;;;;;;;19.23;16.27;;;;;;;;;;5088264;28;20040;-81
2022/09/10 08:38:35;;;;;;;18.33;15.80;;;;;;;;;;5069838;28;20979;-81
2022/09/10 08:41:07;;;;;;;17.98;16.05;;;;;;;;;;5068102;28;20052;-81
2022/09/10 08:43:52;;;;;;;17.27;15.48;;;;;;;;;;5068161;28;20047;-81
2022/09/10 08:46:21;;;;;;;18.90;16.90;;;;;;;;;;5063763;28;20044;-81
2022/09/10 08:48:53;;;;;;;15.70;14.20;;;;;;;;;;5067186;28;20037;-80
2022/09/10 08:51:26;;;;;;;15.40;13.85;;;;;;;;;;5069170;28;20064;-82
2022/09/10 08:53:58;;;;;;;15.88;14.18;;;;;;;;;;5068669;28;20487;-82
2022/09/10 08:56:24;;;;;;;15.73;14.23;;;;;;;;;;5085492;28;20048;-81
2022/09/10 08:58:53;;;;;;;16.95;14.93;;;;;;;;;;5066923;28;20040;-81
2022/09/10 09:01:29;;;;;;;16.90;15.10;;;;;;;;;;5063041;28;20048;-81
2022/09/10 09:03:56;;;;;;;17.85;15.48;;;;;;;;;;5068888;28;20052;-81
2022/09/10 09:06:24;;;;;;;18.08;16.33;;;;;;;;;;5063919;28;20349;-81
2022/09/10 09:08:51;;;;;;;19.85;16.63;;;;;;;;;;5060193;28;20062;-81
2022/09/10 09:11:20;;;;;;;17.20;15.50;;;;;;;;;;5069038;28;20044;-82
2022/09/10 09:13:56;;;;;;;17.95;16.08;;;;;;;;;;5069727;28;20605;-80
2022/09/10 09:16:42;;;;;;;21.73;17.67;;;;;;;;;;5060021;28;20044;-80
2022/09/10 09:19:21;;;;;;;19.65;17.65;;;;;;;;;;5066201;28;20114;-80
2022/09/10 09:21:51;;;;;;;19.17;17.10;;;;;;;;;;5066447;28;20070;-81
2022/09/10 09:24:22;;;;;;;19.35;17.45;;;;;;;;;;5063069;28;20448;-80
2022/09/10 09:26:48;;;;;;;21.55;18.67;;;;;;;;;;5065277;28;20117;-81
2022/09/10 09:29:20;;;;;;;21.08;18.80;;;;;;;;;;5082563;28;20043;-81
2022/09/10 09:31:49;;;;;;;20.42;18.23;;;;;;;;;;5070059;28;20101;-81
2022/09/10 09:34:22;;;;;;;19.80;17.70;;;;;;;;;;5086963;28;20040;-81
2022/09/10 09:36:52;;;;;;;19.77;17.30;;;;;;;;;;5064980;28;20133;-82
2022/09/10 09:39:30;;;;;;;20.20;17.50;;;;;;;;;;5066126;28;20566;-82
2022/09/10 09:41:56;;;;;;;19.17;17.17;;;;;;;;;;5068516;28;20082;-81
2022/09/10 09:44:26;;;;;;;18.73;16.52;;;;;;;;;;5071057;28;20052;-81
2022/09/10 09:46:52;;;;;;;20.50;17.95;;;;;;;;;;5087462;28;20063;-79
2022/09/10 09:49:18;;;;;;;19.10;17.13;;;;;;;;;;5076491;28;20055;-80
2022/09/10 09:51:45;;;;;;;19.40;17.30;;;;;;;;;;5065653;28;20048;-81
2022/09/10 09:54:15;;;;;;;19.98;17.77;;;;;;;;;;5072718;28;20135;-80
2022/09/10 09:56:44;;;;;;;19.42;17.38;;;;;;;;;;5063494;28;20758;-81
2022/09/10 09:59:24;;;;;;;18.55;16.65;;;;;;;;;;5083415;28;20084;-82
2022/09/10 10:01:50;;;;;;;19.27;17.27;;;;;;;;;;5075598;28;20052;-81
2022/09/10 10:04:24;;;;;;;17.83;16.00;;;;;;;;;;5086095;28;20055;-82
2022/09/10 10:06:54;;;;;;;19.52;16.45;;;;;;;;;;5065400;28;20056;-81
2022/09/10 10:09:42;;;;;;;18.17;16.33;;;;;;;;;;5080029;28;20063;-81
2022/09/10 10:12:18;;;;;;;18.63;16.63;;;;;;;;;;5068405;28;20131;-81
2022/09/10 10:14:44;;;;;;;17.70;16.00;;;;;;;;;;5080427;28;20494;-81
2022/09/10 10:17:30;;;;;;;17.75;15.85;;;;;;;;;;5068608;28;20126;-79
2022/09/10 10:20:12;;;;;;;16.88;15.20;;;;;;;;;;5078967;28;20044;-81
2022/09/10 10:22:40;;;;;;;17.27;15.48;;;;;;;;;;5068582;28;20044;-79
2022/09/10 10:25:26;;;;;;;16.08;14.43;;;;;;;;;;5087432;28;20036;-80
2022/09/10 10:27:53;;;;;;;20.88;15.88;;;;;;;;;;5081352;28;20063;-82
2022/09/10 10:30:22;;;;;;;16.85;15.20;;;;;;;;;;5084820;28;20096;-81
2022/09/10 10:32:55;;;;;;;16.55;14.85;;;;;;;;;;5069264;28;20048;-81
2022/09/10 10:35:22;;;;;;;16.08;14.35;;;;;;;;;;5080664;28;20047;-81
2022/09/10 10:38:07;;;;;;;17.30;15.50;;;;;;;;;;5066211;28;20044;-81
2022/09/10 10:40:33;;;;;;;18.10;15.18;;;;;;;;;;5085531;28;20067;-81
2022/09/10 10:43:25;;;;;;;17.20;14.95;;;;;;;;;;5067661;28;20036;-81
2022/09/10 10:45:51;;;;;;;16.20;14.60;;;;;;;;;;5082496;28;20092;-81
2022/09/10 10:48:31;;;;;;;17.45;14.50;;;;;;;;;;5067416;28;20450;-82
2022/09/10 10:50:57;;;;;;;16.02;14.43;;;;;;;;;;5084048;28;20498;-82
2022/09/10 10:53:26;;;;;;;14.88;13.35;;;;;;;;;;5064748;28;20044;-83
2022/09/10 10:55:56;;;;;;;16.33;14.75;;;;;;;;;;5066513;28;20036;-82
2022/09/10 10:58:31;;;;;;;16.00;14.15;;;;;;;;;;5084385;28;20041;-83
2022/09/10 11:01:06;;;;;;;14.32;12.80;;;;;;;;;;5087502;28;20127;-82
2022/09/10 11:03:38;;;;;;;13.32;11.93;;;;;;;;;;5065799;28;20047;-81
2022/09/10 11:06:08;;;;;;;13.83;12.40;;;;;;;;;;5071976;28;20102;-85
2022/09/10 11:08:42;;;;;;;10.45;9.40;;;;;;;;;;5071068;28;20317;-82
2022/09/10 11:11:14;;;;;;;10.23;8.98;;;;;;;;;;5090132;28;20048;-83
2022/09/10 11:13:50;;;;;;;11.95;9.05;;;;;;;;;;5072784;28;20050;-82
2022/09/10 11:16:25;;;;;;;12.82;9.98;;;;;;;;;;5066577;28;20079;-82
2022/09/10 11:18:54;;;;;;;11.13;9.73;;;;;;;;;;5069132;28;20047;-82
2022/09/10 11:21:20;;;;;;;12.70;10.75;;;;;;;;;;5088304;28;20047;-82
2022/09/10 11:23:50;;;;;;;13.77;12.38;;;;;;;;;;5071465;28;20047;-82
2022/09/10 11:26:23;;;;;;;13.90;12.35;;;;;;;;;;5090367;28;20040;-82
2022/09/10 11:29:02;;;;;;;12.75;11.07;;;;;;;;;;5072396;28;20036;-81
2022/09/10 11:31:36;;;;;;;12.35;11.00;;;;;;;;;;5088521;28;20048;-82
2022/09/10 11:34:11;;;;;;;12.85;11.02;;;;;;;;;;5072092;28;20063;-82
2022/09/10 11:36:41;;;;;;;14.35;11.95;;;;;;;;;;5064491;28;20073;-82
2022/09/10 11:39:15;;;;;;;12.18;10.98;;;;;;;;;;5063295;28;20040;-83
2022/09/10 11:41:42;;;;;;;11.98;10.82;;;;;;;;;;5086234;28;20047;-82
2022/09/10 11:44:08;;;;;;;13.15;11.73;;;;;;;;;;5066535;28;20590;-82
2022/09/10 11:46:43;;;;;;;13.25;11.70;;;;;;;;;;5087409;28;20040;-81
2022/09/10 11:49:16;;;;;;;12.20;10.98;;;;;;;;;;5072172;28;20052;-82
2022/09/10 11:51:43;;;;;;;11.45;10.25;;;;;;;;;;5070939;28;20052;-84
2022/09/10 11:54:12;;;;;;;12.27;10.98;;;;;;;;;;5068075;28;20072;-82
2022/09/10 11:56:53;;;;;;;12.68;11.30;;;;;;;;;;5090309;28;20050;-82
2022/09/10 11:59:23;;;;;;;12.35;11.07;;;;;;;;;;5071700;28;20032;-84
2022/09/10 12:02:08;;;;;;;13.23;11.30;;;;;;;;;;5065371;28;20189;-83
2022/09/10 12:04:34;;;;;;;11.70;10.43;;;;;;;;;;5089969;28;20044;-87
2022/09/10 12:07:18;;;;;;;12.07;10.13;;;;;;;;;;5070379;28;20064;-84
2022/09/10 12:10:04;;;;;;;12.70;11.27;;;;;;;;;;5086137;28;20043;-86
2022/09/10 12:12:36;;;;;;;11.30;9.73;;;;;;;;;;5084768;28;20448;-84
2022/09/10 12:15:07;;;;;;;10.65;9.40;;;;;;;;;;5069668;28;20067;-82
2022/09/10 12:17:35;;;;;;;11.75;9.95;;;;;;;;;;5089623;28;20040;-77
2022/09/10 12:20:04;;;;;;;12.55;10.13;;;;;;;;;;5090398;28;20036;-88
2022/09/10 12:22:35;;;;;;;10.35;8.85;;;;;;;;;;5071549;28;20048;-81
2022/09/10 12:25:06;;;;;;;11.02;8.85;;;;;;;;;;5084744;28;20040;-84
2022/09/10 12:27:44;;;;;;;9.23;8.23;;;;;;;;;;5067927;28;20055;-83
2022/09/10 12:30:35;;;;;;;11.50;9.18;;;;;;;;;;5073019;28;20104;-84
2022/09/10 12:33:13;;;;;;;9.35;8.40;;;;;;;;;;5086530;28;20033;-83
2022/09/10 12:35:43;;;;;;;10.27;8.85;;;;;;;;;;5090997;28;20048;-82
2022/09/10 12:38:28;;;;;;;9.77;8.27;;;;;;;;;;5067848;28;20040;-80
2022/09/10 12:40:55;;;;;;;10.07;8.88;;;;;;;;;;5066340;28;20048;-81
2022/09/10 12:43:44;;;;;;;8.70;7.57;;;;;;;;;;5085748;28;20122;-87
2022/09/10 12:46:12;;;;;;;10.00;8.68;;;;;;;;;;5064509;28;20051;-88
2022/09/10 12:48:49;;;;;;;10.18;9.10;;;;;;;;;;5089123;28;20040;-87
2022/09/10 12:51:18;;;;;;;10.57;8.60;;;;;;;;;;5070747;28;20098;-91
2022/09/10 12:54:03;;;;;;;10.82;9.10;;;;;;;;;;5091058;28;20067;-91
2022/09/10 12:56:42;;;;;;;10.15;8.55;;;;;;;;;;5083513;28;20074;-91
2022/09/10 12:59:30;;;;;;;8.93;8.02;;;;;;;;;;5069969;28;20047;-86
2022/09/10 13:01:57;;;;;;;8.80;7.90;;;;;;;;;;5065932;28;20055;-84
2022/09/10 13:04:27;;;;;;;8.07;7.30;;;;;;;;;;5071407;28;20051;-86
2022/09/10 13:06:56;;;;;;;8.48;7.32;;;;;;;;;;5068541;28;20406;-86
2022/09/10 13:09:25;;;;;;;8.00;6.75;;;;;;;;;;5068247;28;20483;-86
2022/09/10 13:11:53;;;;;;;8.98;6.47;;;;;;;;;;5070996;28;20067;-87
2022/09/10 13:14:42;;;;;;;9.65;6.82;;;;;;;;;;5071816;28;20463;-85
2022/09/10 13:17:28;;;;;;;7.72;6.93;;;;;;;;;;5087652;28;20040;-86
2022/09/10 13:19:54;;;;;;;7.82;6.20;;;;;;;;;;5067481;28;20047;-83
2022/09/10 13:22:30;;;;;;;9.55;6.30;;;;;;;;;;5070105;28;20399;-84
2022/09/10 13:25:02;;;;;;;6.35;5.72;;;;;;;;;;5085885;28;20079;-83
2022/09/10 13:27:36;;;;;;;6.97;5.25;;;;;;;;;;5089308;28;20047;-82
2022/09/10 13:30:19;;;;;;;6.70;6.00;;;;;;;;;;5079168;28;20429;-82
2022/09/10 13:33:03;;;;;;;7.78;6.13;;;;;;;;;;5070183;28;20483;-82
2022/09/10 13:35:50;;;;;;;7.75;5.40;;;;;;;;;;5087651;28;20411;-82
2022/09/10 13:38:36;;;;;;;6.80;5.40;;;;;;;;;;5070300;28;20075;-81
2022/09/10 13:41:15;;;;;;;7.03;5.65;;;;;;;;;;5088493;28;20472;-81
2022/09/10 13:43:47;;;;;;;7.47;6.00;;;;;;;;;;5084685;28;20052;-84
2022/09/10 13:46:20;;;;;;;5.57;4.95;;;;;;;;;;5086713;28;20123;-82
2022/09/10 13:48:46;;;;;;;;;;;;;;;;;;5065493;28;20093;-83
2022/09/10 13:51:32;;;;;;;5.45;4.80;;;;;;;;;;5085645;28;20291;-81
2022/09/10 13:54:01;;;;;;;7.35;6.22;;;;;;;;;;5067302;28;20476;-82
2022/09/10 13:56:27;;;;;;;9.65;6.28;;;;;;;;;;5089151;28;20055;-84
2022/09/10 13:59:02;;;;;;;7.82;6.82;;;;;;;;;;5072502;28;20136;-89
2022/09/10 14:01:46;;;;;;;6.50;5.80;;;;;;;;;;5098360;28;20082;-92
2022/09/10 14:04:22;;;;;;;7.82;5.85;;;;;;;;;;5073258;28;20096;-86
2022/09/10 14:06:48;;;;;;;8.20;6.10;;;;;;;;;;5065947;28;20122;-87
2022/09/10 14:09:14;;;;;;;7.60;6.10;;;;;;;;;;5068991;28;20043;-86
2022/09/10 14:11:41;;;;;;;5.68;5.10;;;;;;;;;;5068690;28;20408;-85
2022/09/10 14:14:19;;;;;;;5.85;4.95;;;;;;;;;;5087069;28;20484;-85
2022/09/10 14:16:50;;;;;;;7.65;5.78;;;;;;;;;;5066666;28;20052;-85
2022/09/10 14:19:19;;;;;;;6.03;5.15;;;;;;;;;;5079381;28;20047;-82
2022/09/10 14:21:50;;;;;;;5.35;4.70;;;;;;;;;;5064543;28;20067;-83
2022/09/10 14:24:30;;;;;;;5.97;4.95;;;;;;;;;;5087547;28;20051;-83
2022/09/10 14:27:05;;;;;;;4.90;4.50;;;;;;;;;;5060887;28;20436;-82
2022/09/10 14:29:31;;;;;;;5.47;4.47;;;;;;;;;;5070783;28;20036;-83
2022/09/10 14:32:15;;;;;;;5.18;4.38;;;;;;;;;;5069819;28;20048;-83
2022/09/10 14:34:41;;;;;;;5.35;4.78;;;;;;;;;;5089204;28;20039;-82
2022/09/10 14:37:25;;;;;;;5.57;3.92;;;;;;;;;;5092188;28;20032;-86